sensor_id;sensor_type;location;lat;lon;timestamp;P1;durP1;ratioP1;P2;durP2;ratioP2
69083;SDS011;56185;48.526;9.044;2023-05-10T00:01:20;2.10;;;1.20;;
69083;SDS011;56185;48.526;9.044;2023-05-10T00:03:46;3.37;;;1.20;;
69083;SDS011;56185;48.526;9.044;2023-05-10T00:06:11;3.50;;;1.23;;
69083;SDS011;56185;48.526;9.044;2023-05-10T00:08:36;2.90;;;1.20;;
69083;SDS011;56185;48.526;9.044;2023-05-10T00:11:01;1.23;;;1.00;;
69083;SDS011;56185;48.526;9.044;2023-05-10T00:13:27;3.88;;;1.20;;
69083;SDS011;56185;48.526;9.044;2023-05-10T00:15:53;3.10;;;1.10;;
69083;SDS011;56185;48.526;9.044;2023-05-10T00:18:18;3.38;;;1.10;;
69083;SDS011;56185;48.526;9.044;2023-05-10T00:20:44;3.63;;;1.10;;
69083;SDS011;56185;48.526;9.044;2023-05-10T00:23:09;2.50;;;0.97;;
69083;SDS011;56185;48.526;9.044;2023-05-10T00:25:34;2.43;;;0.90;;
69083;SDS011;56185;48.526;9.044;2023-05-10T00:27:59;1.20;;;0.90;;
69083;SDS011;56185;48.526;9.044;2023-05-10T00:30:25;2.73;;;1.00;;
69083;SDS011;56185;48.526;9.044;2023-05-10T00:32:50;2.15;;;0.80;;
69083;SDS011;56185;48.526;9.044;2023-05-10T00:35:15;2.03;;;0.80;;
69083;SDS011;56185;48.526;9.044;2023-05-10T00:37:40;1.02;;;0.60;;
69083;SDS011;56185;48.526;9.044;2023-05-10T00:40:06;1.37;;;0.70;;
69083;SDS011;56185;48.526;9.044;2023-05-10T00:42:31;1.17;;;0.70;;
69083;SDS011;56185;48.526;9.044;2023-05-10T00:44:57;0.80;;;0.68;;
69083;SDS011;56185;48.526;9.044;2023-05-10T00:47:22;0.95;;;0.60;;
69083;SDS011;56185;48.526;9.044;2023-05-10T00:49:47;3.72;;;0.70;;
69083;SDS011;56185;48.526;9.044;2023-05-10T00:52:13;0.80;;;0.65;;
69083;SDS011;56185;48.526;9.044;2023-05-10T00:54:38;1.75;;;0.70;;
69083;SDS011;56185;48.526;9.044;2023-05-10T00:57:04;1.98;;;0.80;;
69083;SDS011;56185;48.526;9.044;2023-05-10T00:59:29;1.33;;;0.70;;
69083;SDS011;56185;48.526;9.044;2023-05-10T01:01:54;0.70;;;0.60;;
69083;SDS011;56185;48.526;9.044;2023-05-10T01:04:20;3.40;;;0.70;;
69083;SDS011;56185;48.526;9.044;2023-05-10T01:06:45;1.65;;;0.80;;
69083;SDS011;56185;48.526;9.044;2023-05-10T01:09:10;0.70;;;0.53;;
69083;SDS011;56185;48.526;9.044;2023-05-10T01:11:36;2.20;;;0.73;;
69083;SDS011;56185;48.526;9.044;2023-05-10T01:14:03;1.42;;;0.60;;
69083;SDS011;56185;48.526;9.044;2023-05-10T01:16:31;0.80;;;0.60;;
69083;SDS011;56185;48.526;9.044;2023-05-10T01:18:59;1.23;;;0.60;;
69083;SDS011;56185;48.526;9.044;2023-05-10T01:26:57;1.20;;;0.65;;
69083;SDS011;56185;48.526;9.044;2023-05-10T01:30:29;0.73;;;0.50;;
69083;SDS011;56185;48.526;9.044;2023-05-10T01:35:17;1.70;;;0.60;;
69083;SDS011;56185;48.526;9.044;2023-05-10T01:37:59;1.38;;;0.60;;
69083;SDS011;56185;48.526;9.044;2023-05-10T01:40:46;2.15;;;0.55;;
69083;SDS011;56185;48.526;9.044;2023-05-10T01:43:30;1.75;;;0.43;;
69083;SDS011;56185;48.526;9.044;2023-05-10T01:46:05;1.95;;;0.50;;
69083;SDS011;56185;48.526;9.044;2023-05-10T01:48:34;0.82;;;0.50;;
69083;SDS011;56185;48.526;9.044;2023-05-10T01:50:59;2.20;;;0.60;;
69083;SDS011;56185;48.526;9.044;2023-05-10T01:53:24;0.75;;;0.50;;
69083;SDS011;56185;48.526;9.044;2023-05-10T01:55:52;0.70;;;0.50;;
69083;SDS011;56185;48.526;9.044;2023-05-10T01:58:20;0.90;;;0.60;;
69083;SDS011;56185;48.526;9.044;2023-05-10T02:00:47;2.15;;;0.60;;
69083;SDS011;56185;48.526;9.044;2023-05-10T02:03:15;0.57;;;0.50;;
69083;SDS011;56185;48.526;9.044;2023-05-10T02:05:43;2.15;;;0.60;;
69083;SDS011;56185;48.526;9.044;2023-05-10T02:08:10;3.30;;;0.80;;
69083;SDS011;56185;48.526;9.044;2023-05-10T02:10:36;0.60;;;0.50;;
69083;SDS011;56185;48.526;9.044;2023-05-10T02:13:04;2.13;;;0.60;;
69083;SDS011;56185;48.526;9.044;2023-05-10T02:15:31;0.95;;;0.60;;
69083;SDS011;56185;48.526;9.044;2023-05-10T02:17:57;0.82;;;0.60;;
69083;SDS011;56185;48.526;9.044;2023-05-10T02:20:24;0.63;;;0.60;;
69083;SDS011;56185;48.526;9.044;2023-05-10T02:22:51;4.53;;;0.70;;
69083;SDS011;56185;48.526;9.044;2023-05-10T02:25:19;1.77;;;0.50;;
69083;SDS011;56185;48.526;9.044;2023-05-10T02:27:46;0.70;;;0.60;;
69083;SDS011;56185;48.526;9.044;2023-05-10T02:30:13;0.90;;;0.60;;
69083;SDS011;56185;48.526;9.044;2023-05-10T02:32:39;1.63;;;0.60;;
69083;SDS011;56185;48.526;9.044;2023-05-10T02:35:05;0.65;;;0.50;;
69083;SDS011;56185;48.526;9.044;2023-05-10T02:37:32;0.95;;;0.60;;
69083;SDS011;56185;48.526;9.044;2023-05-10T02:39:59;0.73;;;0.57;;
69083;SDS011;56185;48.526;9.044;2023-05-10T02:42:26;1.15;;;0.70;;
69083;SDS011;56185;48.526;9.044;2023-05-10T02:44:53;1.60;;;0.60;;
69083;SDS011;56185;48.526;9.044;2023-05-10T02:47:21;1.10;;;0.60;;
69083;SDS011;56185;48.526;9.044;2023-05-10T02:49:46;1.13;;;0.68;;
69083;SDS011;56185;48.526;9.044;2023-05-10T02:52:12;1.38;;;0.68;;
69083;SDS011;56185;48.526;9.044;2023-05-10T02:54:44;1.80;;;0.60;;
69083;SDS011;56185;48.526;9.044;2023-05-10T02:57:11;1.35;;;0.82;;
69083;SDS011;56185;48.526;9.044;2023-05-10T02:59:41;3.97;;;0.80;;
69083;SDS011;56185;48.526;9.044;2023-05-10T03:02:06;2.40;;;0.68;;
69083;SDS011;56185;48.526;9.044;2023-05-10T03:04:32;0.90;;;0.70;;
69083;SDS011;56185;48.526;9.044;2023-05-10T03:06:57;2.67;;;0.70;;
69083;SDS011;56185;48.526;9.044;2023-05-10T03:09:23;0.80;;;0.60;;
69083;SDS011;56185;48.526;9.044;2023-05-10T03:16:59;2.33;;;0.95;;
69083;SDS011;56185;48.526;9.044;2023-05-10T03:19:40;0.98;;;0.80;;
69083;SDS011;56185;48.526;9.044;2023-05-10T03:22:37;1.90;;;0.85;;
69083;SDS011;56185;48.526;9.044;2023-05-10T03:25:06;0.95;;;0.80;;
69083;SDS011;56185;48.526;9.044;2023-05-10T03:27:32;1.95;;;0.90;;
69083;SDS011;56185;48.526;9.044;2023-05-10T03:30:00;0.95;;;0.70;;
69083;SDS011;56185;48.526;9.044;2023-05-10T03:32:28;3.15;;;0.80;;
69083;SDS011;56185;48.526;9.044;2023-05-10T03:34:54;1.55;;;0.80;;
69083;SDS011;56185;48.526;9.044;2023-05-10T03:37:19;2.57;;;0.80;;
69083;SDS011;56185;48.526;9.044;2023-05-10T03:39:44;1.23;;;0.80;;
69083;SDS011;56185;48.526;9.044;2023-05-10T03:42:09;2.70;;;0.90;;
69083;SDS011;56185;48.526;9.044;2023-05-10T03:44:35;1.10;;;0.77;;
69083;SDS011;56185;48.526;9.044;2023-05-10T03:47:00;2.00;;;1.10;;
69083;SDS011;56185;48.526;9.044;2023-05-10T03:49:25;1.23;;;0.97;;
69083;SDS011;56185;48.526;9.044;2023-05-10T03:51:50;2.13;;;0.70;;
69083;SDS011;56185;48.526;9.044;2023-05-10T03:54:16;2.63;;;0.97;;
69083;SDS011;56185;48.526;9.044;2023-05-10T03:56:41;3.07;;;1.00;;
69083;SDS011;56185;48.526;9.044;2023-05-10T03:59:06;1.40;;;1.05;;
69083;SDS011;56185;48.526;9.044;2023-05-10T04:01:31;1.50;;;0.90;;
69083;SDS011;56185;48.526;9.044;2023-05-10T04:03:57;2.60;;;1.00;;
69083;SDS011;56185;48.526;9.044;2023-05-10T04:06:22;2.87;;;0.93;;
69083;SDS011;56185;48.526;9.044;2023-05-10T04:08:47;2.63;;;1.00;;
69083;SDS011;56185;48.526;9.044;2023-05-10T04:11:12;1.80;;;1.00;;
69083;SDS011;56185;48.526;9.044;2023-05-10T04:13:38;2.10;;;1.00;;
69083;SDS011;56185;48.526;9.044;2023-05-10T04:16:03;2.75;;;1.10;;
69083;SDS011;56185;48.526;9.044;2023-05-10T04:18:29;1.80;;;1.30;;
69083;SDS011;56185;48.526;9.044;2023-05-10T04:20:55;2.67;;;0.98;;
69083;SDS011;56185;48.526;9.044;2023-05-10T04:23:20;2.28;;;1.08;;
69083;SDS011;56185;48.526;9.044;2023-05-10T04:25:45;2.03;;;1.00;;
69083;SDS011;56185;48.526;9.044;2023-05-10T04:28:11;1.35;;;0.90;;
69083;SDS011;56185;48.526;9.044;2023-05-10T04:30:36;2.92;;;1.20;;
69083;SDS011;56185;48.526;9.044;2023-05-10T04:33:01;1.77;;;1.05;;
69083;SDS011;56185;48.526;9.044;2023-05-10T04:35:27;1.20;;;0.98;;
69083;SDS011;56185;48.526;9.044;2023-05-10T04:37:52;1.33;;;1.10;;
69083;SDS011;56185;48.526;9.044;2023-05-10T04:40:18;1.30;;;1.10;;
69083;SDS011;56185;48.526;9.044;2023-05-10T04:42:43;3.37;;;1.10;;
69083;SDS011;56185;48.526;9.044;2023-05-10T04:45:08;3.35;;;1.20;;
69083;SDS011;56185;48.526;9.044;2023-05-10T04:47:34;1.88;;;1.10;;
69083;SDS011;56185;48.526;9.044;2023-05-10T04:50:00;2.28;;;1.00;;
69083;SDS011;56185;48.526;9.044;2023-05-10T04:52:25;1.73;;;1.25;;
69083;SDS011;56185;48.526;9.044;2023-05-10T04:54:50;2.08;;;1.00;;
69083;SDS011;56185;48.526;9.044;2023-05-10T04:57:15;1.10;;;0.90;;
69083;SDS011;56185;48.526;9.044;2023-05-10T04:59:41;2.28;;;0.98;;
69083;SDS011;56185;48.526;9.044;2023-05-10T05:02:06;2.30;;;1.07;;
69083;SDS011;56185;48.526;9.044;2023-05-10T05:04:31;3.97;;;1.20;;
69083;SDS011;56185;48.526;9.044;2023-05-10T05:06:56;1.40;;;0.90;;
69083;SDS011;56185;48.526;9.044;2023-05-10T05:09:22;4.07;;;1.40;;
69083;SDS011;56185;48.526;9.044;2023-05-10T05:11:47;1.57;;;1.00;;
69083;SDS011;56185;48.526;9.044;2023-05-10T05:14:12;3.50;;;1.10;;
69083;SDS011;56185;48.526;9.044;2023-05-10T05:16:37;2.80;;;0.93;;
69083;SDS011;56185;48.526;9.044;2023-05-10T05:19:03;2.38;;;1.00;;
69083;SDS011;56185;48.526;9.044;2023-05-10T05:21:28;1.23;;;0.80;;
69083;SDS011;56185;48.526;9.044;2023-05-10T05:23:53;1.40;;;1.00;;
69083;SDS011;56185;48.526;9.044;2023-05-10T05:26:19;1.98;;;1.00;;
69083;SDS011;56185;48.526;9.044;2023-05-10T05:28:44;2.33;;;0.90;;
69083;SDS011;56185;48.526;9.044;2023-05-10T05:31:09;3.20;;;1.13;;
69083;SDS011;56185;48.526;9.044;2023-05-10T05:33:35;1.55;;;1.10;;
69083;SDS011;56185;48.526;9.044;2023-05-10T05:36:04;2.22;;;1.20;;
69083;SDS011;56185;48.526;9.044;2023-05-10T05:38:30;2.63;;;1.20;;
69083;SDS011;56185;48.526;9.044;2023-05-10T05:40:55;2.10;;;1.00;;
69083;SDS011;56185;48.526;9.044;2023-05-10T05:43:21;2.58;;;1.17;;
69083;SDS011;56185;48.526;9.044;2023-05-10T05:45:46;1.80;;;1.20;;
69083;SDS011;56185;48.526;9.044;2023-05-10T05:48:11;2.33;;;1.03;;
69083;SDS011;56185;48.526;9.044;2023-05-10T05:50:37;1.30;;;1.00;;
69083;SDS011;56185;48.526;9.044;2023-05-10T05:53:02;2.30;;;1.00;;
69083;SDS011;56185;48.526;9.044;2023-05-10T05:55:27;1.90;;;1.20;;
69083;SDS011;56185;48.526;9.044;2023-05-10T05:57:52;1.70;;;1.13;;
69083;SDS011;56185;48.526;9.044;2023-05-10T06:00:17;2.40;;;1.13;;
69083;SDS011;56185;48.526;9.044;2023-05-10T06:02:43;3.20;;;1.50;;
69083;SDS011;56185;48.526;9.044;2023-05-10T06:05:08;5.03;;;1.30;;
69083;SDS011;56185;48.526;9.044;2023-05-10T06:07:33;1.90;;;1.10;;
69083;SDS011;56185;48.526;9.044;2023-05-10T06:09:59;3.65;;;1.38;;
69083;SDS011;56185;48.526;9.044;2023-05-10T06:12:24;2.45;;;1.30;;
69083;SDS011;56185;48.526;9.044;2023-05-10T06:14:49;5.30;;;2.20;;
69083;SDS011;56185;48.526;9.044;2023-05-10T06:17:14;2.00;;;1.27;;
69083;SDS011;56185;48.526;9.044;2023-05-10T06:19:40;2.33;;;1.30;;
69083;SDS011;56185;48.526;9.044;2023-05-10T06:22:05;1.60;;;1.20;;
69083;SDS011;56185;48.526;9.044;2023-05-10T06:24:30;1.43;;;1.10;;
69083;SDS011;56185;48.526;9.044;2023-05-10T06:26:55;3.77;;;1.27;;
69083;SDS011;56185;48.526;9.044;2023-05-10T06:29:21;1.83;;;1.10;;
69083;SDS011;56185;48.526;9.044;2023-05-10T06:31:53;4.30;;;1.20;;
69083;SDS011;56185;48.526;9.044;2023-05-10T06:34:18;3.78;;;1.33;;
69083;SDS011;56185;48.526;9.044;2023-05-10T06:36:44;2.60;;;1.20;;
69083;SDS011;56185;48.526;9.044;2023-05-10T06:39:09;1.60;;;1.10;;
69083;SDS011;56185;48.526;9.044;2023-05-10T06:41:34;5.10;;;1.40;;
69083;SDS011;56185;48.526;9.044;2023-05-10T06:43:59;4.13;;;1.30;;
69083;SDS011;56185;48.526;9.044;2023-05-10T06:46:25;4.60;;;1.93;;
69083;SDS011;56185;48.526;9.044;2023-05-10T06:48:50;3.33;;;1.40;;
69083;SDS011;56185;48.526;9.044;2023-05-10T06:51:15;2.65;;;1.30;;
69083;SDS011;56185;48.526;9.044;2023-05-10T06:53:41;2.60;;;1.30;;
69083;SDS011;56185;48.526;9.044;2023-05-10T06:56:09;1.87;;;1.20;;
69083;SDS011;56185;48.526;9.044;2023-05-10T06:58:34;3.13;;;1.30;;
69083;SDS011;56185;48.526;9.044;2023-05-10T07:01:03;1.90;;;1.20;;
69083;SDS011;56185;48.526;9.044;2023-05-10T07:03:29;2.85;;;1.58;;
69083;SDS011;56185;48.526;9.044;2023-05-10T07:05:56;1.90;;;1.03;;
69083;SDS011;56185;48.526;9.044;2023-05-10T07:08:27;2.10;;;1.10;;
69083;SDS011;56185;48.526;9.044;2023-05-10T07:10:52;1.50;;;1.00;;
69083;SDS011;56185;48.526;9.044;2023-05-10T07:13:18;2.00;;;1.00;;
69083;SDS011;56185;48.526;9.044;2023-05-10T07:15:43;1.60;;;1.20;;
69083;SDS011;56185;48.526;9.044;2023-05-10T07:18:08;1.30;;;0.90;;
69083;SDS011;56185;48.526;9.044;2023-05-10T07:20:33;1.60;;;1.03;;
69083;SDS011;56185;48.526;9.044;2023-05-10T07:22:59;1.57;;;1.00;;
69083;SDS011;56185;48.526;9.044;2023-05-10T07:25:24;2.25;;;1.10;;
69083;SDS011;56185;48.526;9.044;2023-05-10T07:27:49;1.30;;;1.10;;
69083;SDS011;56185;48.526;9.044;2023-05-10T07:30:15;2.03;;;1.10;;
69083;SDS011;56185;48.526;9.044;2023-05-10T07:32:40;1.67;;;1.05;;
69083;SDS011;56185;48.526;9.044;2023-05-10T07:35:05;1.93;;;1.30;;
69083;SDS011;56185;48.526;9.044;2023-05-10T07:37:31;1.92;;;1.30;;
69083;SDS011;56185;48.526;9.044;2023-05-10T07:39:56;3.23;;;1.40;;
69083;SDS011;56185;48.526;9.044;2023-05-10T07:42:21;1.30;;;1.10;;
69083;SDS011;56185;48.526;9.044;2023-05-10T07:44:49;1.20;;;1.00;;
69083;SDS011;56185;48.526;9.044;2023-05-10T07:47:14;2.00;;;1.10;;
69083;SDS011;56185;48.526;9.044;2023-05-10T07:49:39;1.73;;;1.00;;
69083;SDS011;56185;48.526;9.044;2023-05-10T07:52:04;1.57;;;1.20;;
69083;SDS011;56185;48.526;9.044;2023-05-10T07:54:29;1.43;;;0.90;;
69083;SDS011;56185;48.526;9.044;2023-05-10T07:56:55;2.30;;;1.00;;
69083;SDS011;56185;48.526;9.044;2023-05-10T07:59:20;1.60;;;1.00;;
69083;SDS011;56185;48.526;9.044;2023-05-10T08:01:45;3.35;;;1.15;;
69083;SDS011;56185;48.526;9.044;2023-05-10T08:04:10;1.40;;;1.00;;
69083;SDS011;56185;48.526;9.044;2023-05-10T08:06:36;1.48;;;0.98;;
69083;SDS011;56185;48.526;9.044;2023-05-10T08:09:01;1.40;;;0.90;;
69083;SDS011;56185;48.526;9.044;2023-05-10T08:11:27;2.47;;;1.20;;
69083;SDS011;56185;48.526;9.044;2023-05-10T08:13:52;1.60;;;0.90;;
69083;SDS011;56185;48.526;9.044;2023-05-10T08:16:17;1.77;;;1.00;;
69083;SDS011;56185;48.526;9.044;2023-05-10T08:18:43;1.58;;;1.00;;
69083;SDS011;56185;48.526;9.044;2023-05-10T08:21:09;2.83;;;0.90;;
69083;SDS011;56185;48.526;9.044;2023-05-10T08:23:35;1.60;;;0.90;;
69083;SDS011;56185;48.526;9.044;2023-05-10T08:26:00;1.53;;;1.00;;
69083;SDS011;56185;48.526;9.044;2023-05-10T08:28:28;3.40;;;0.95;;
69083;SDS011;56185;48.526;9.044;2023-05-10T08:30:53;1.20;;;0.90;;
69083;SDS011;56185;48.526;9.044;2023-05-10T08:33:18;1.00;;;0.80;;
69083;SDS011;56185;48.526;9.044;2023-05-10T08:35:44;3.65;;;0.80;;
69083;SDS011;56185;48.526;9.044;2023-05-10T08:38:09;3.15;;;0.82;;
69083;SDS011;56185;48.526;9.044;2023-05-10T08:40:35;2.23;;;0.90;;
69083;SDS011;56185;48.526;9.044;2023-05-10T08:43:04;1.88;;;0.88;;
69083;SDS011;56185;48.526;9.044;2023-05-10T08:45:31;1.38;;;0.88;;
69083;SDS011;56185;48.526;9.044;2023-05-10T08:47:58;1.40;;;0.80;;
69083;SDS011;56185;48.526;9.044;2023-05-10T08:50:26;1.77;;;1.10;;
69083;SDS011;56185;48.526;9.044;2023-05-10T08:52:52;2.78;;;0.73;;
69083;SDS011;56185;48.526;9.044;2023-05-10T08:55:20;1.00;;;0.80;;
69083;SDS011;56185;48.526;9.044;2023-05-10T08:57:46;0.90;;;0.70;;
69083;SDS011;56185;48.526;9.044;2023-05-10T09:00:12;2.67;;;0.90;;
69083;SDS011;56185;48.526;9.044;2023-05-10T09:02:38;1.52;;;0.80;;
69083;SDS011;56185;48.526;9.044;2023-05-10T09:05:04;1.10;;;0.70;;
69083;SDS011;56185;48.526;9.044;2023-05-10T09:07:29;1.85;;;0.60;;
69083;SDS011;56185;48.526;9.044;2023-05-10T09:09:55;1.23;;;0.60;;
69083;SDS011;56185;48.526;9.044;2023-05-10T09:12:22;1.15;;;0.70;;
69083;SDS011;56185;48.526;9.044;2023-05-10T09:14:48;1.55;;;0.70;;
69083;SDS011;56185;48.526;9.044;2023-05-10T09:17:14;2.33;;;0.70;;
69083;SDS011;56185;48.526;9.044;2023-05-10T09:19:39;3.10;;;0.80;;
69083;SDS011;56185;48.526;9.044;2023-05-10T09:22:05;0.90;;;0.60;;
69083;SDS011;56185;48.526;9.044;2023-05-10T09:24:30;1.00;;;0.68;;
69083;SDS011;56185;48.526;9.044;2023-05-10T09:26:56;1.90;;;0.67;;
69083;SDS011;56185;48.526;9.044;2023-05-10T09:29:22;1.00;;;0.70;;
69083;SDS011;56185;48.526;9.044;2023-05-10T09:31:48;0.80;;;0.70;;
69083;SDS011;56185;48.526;9.044;2023-05-10T09:34:22;1.65;;;0.70;;
69083;SDS011;56185;48.526;9.044;2023-05-10T09:36:55;1.10;;;0.77;;
69083;SDS011;56185;48.526;9.044;2023-05-10T09:39:34;0.90;;;0.70;;
69083;SDS011;56185;48.526;9.044;2023-05-10T09:42:09;1.33;;;0.60;;
69083;SDS011;56185;48.526;9.044;2023-05-10T09:47:01;1.02;;;0.70;;
69083;SDS011;56185;48.526;9.044;2023-05-10T09:49:27;1.60;;;0.70;;
69083;SDS011;56185;48.526;9.044;2023-05-10T09:52:07;2.33;;;0.68;;
69083;SDS011;56185;48.526;9.044;2023-05-10T09:54:33;1.00;;;0.70;;
69083;SDS011;56185;48.526;9.044;2023-05-10T09:56:59;2.80;;;0.70;;
69083;SDS011;56185;48.526;9.044;2023-05-10T09:59:26;0.70;;;0.60;;
69083;SDS011;56185;48.526;9.044;2023-05-10T10:01:56;1.25;;;0.70;;
69083;SDS011;56185;48.526;9.044;2023-05-10T10:04:25;1.08;;;0.80;;
69083;SDS011;56185;48.526;9.044;2023-05-10T10:07:00;1.95;;;0.80;;
69083;SDS011;56185;48.526;9.044;2023-05-10T10:09:28;2.05;;;0.70;;
69083;SDS011;56185;48.526;9.044;2023-05-10T10:11:53;1.73;;;0.70;;
69083;SDS011;56185;48.526;9.044;2023-05-10T10:14:19;1.15;;;0.80;;
69083;SDS011;56185;48.526;9.044;2023-05-10T10:16:46;0.93;;;0.70;;
69083;SDS011;56185;48.526;9.044;2023-05-10T10:19:11;1.75;;;0.75;;
69083;SDS011;56185;48.526;9.044;2023-05-10T10:21:37;1.35;;;0.80;;
69083;SDS011;56185;48.526;9.044;2023-05-10T10:24:08;1.38;;;0.70;;
69083;SDS011;56185;48.526;9.044;2023-05-10T10:26:52;3.10;;;0.80;;
69083;SDS011;56185;48.526;9.044;2023-05-10T10:35:46;2.70;;;0.90;;
69083;SDS011;56185;48.526;9.044;2023-05-10T10:38:35;0.90;;;0.70;;
69083;SDS011;56185;48.526;9.044;2023-05-10T10:44:43;1.38;;;0.90;;
69083;SDS011;56185;48.526;9.044;2023-05-10T10:50:22;5.25;;;1.00;;
69083;SDS011;56185;48.526;9.044;2023-05-10T10:52:35;0.93;;;0.70;;
69083;SDS011;56185;48.526;9.044;2023-05-10T10:55:13;1.52;;;0.80;;
69083;SDS011;56185;48.526;9.044;2023-05-10T11:00:22;0.88;;;0.68;;
69083;SDS011;56185;48.526;9.044;2023-05-10T11:02:51;0.90;;;0.60;;
69083;SDS011;56185;48.526;9.044;2023-05-10T11:08:01;2.13;;;0.60;;
69083;SDS011;56185;48.526;9.044;2023-05-10T11:10:32;0.90;;;0.52;;
69083;SDS011;56185;48.526;9.044;2023-05-10T11:13:08;1.85;;;0.70;;
69083;SDS011;56185;48.526;9.044;2023-05-10T11:15:35;0.80;;;0.70;;
69083;SDS011;56185;48.526;9.044;2023-05-10T11:18:20;1.38;;;0.80;;
69083;SDS011;56185;48.526;9.044;2023-05-10T11:20:59;2.88;;;0.98;;
69083;SDS011;56185;48.526;9.044;2023-05-10T11:23:30;1.08;;;0.70;;
69083;SDS011;56185;48.526;9.044;2023-05-10T11:26:12;1.20;;;0.60;;
69083;SDS011;56185;48.526;9.044;2023-05-10T11:28:42;2.67;;;0.80;;
69083;SDS011;56185;48.526;9.044;2023-05-10T11:31:08;2.25;;;0.80;;
69083;SDS011;56185;48.526;9.044;2023-05-10T11:33:53;1.92;;;0.90;;
69083;SDS011;56185;48.526;9.044;2023-05-10T11:36:21;1.10;;;0.70;;
69083;SDS011;56185;48.526;9.044;2023-05-10T11:38:49;3.47;;;1.30;;
69083;SDS011;56185;48.526;9.044;2023-05-10T11:41:15;2.20;;;0.80;;
69083;SDS011;56185;48.526;9.044;2023-05-10T11:43:42;6.50;;;0.90;;
69083;SDS011;56185;48.526;9.044;2023-05-10T11:46:11;2.97;;;0.90;;
69083;SDS011;56185;48.526;9.044;2023-05-10T11:48:40;2.13;;;0.70;;
69083;SDS011;56185;48.526;9.044;2023-05-10T11:51:07;1.35;;;0.80;;
69083;SDS011;56185;48.526;9.044;2023-05-10T11:53:33;2.17;;;0.98;;
69083;SDS011;56185;48.526;9.044;2023-05-10T11:56:05;1.95;;;1.05;;
69083;SDS011;56185;48.526;9.044;2023-05-10T11:58:31;2.20;;;1.05;;
69083;SDS011;56185;48.526;9.044;2023-05-10T12:00:58;1.30;;;0.88;;
69083;SDS011;56185;48.526;9.044;2023-05-10T12:03:27;1.38;;;0.80;;
69083;SDS011;56185;48.526;9.044;2023-05-10T12:05:52;3.10;;;1.00;;
69083;SDS011;56185;48.526;9.044;2023-05-10T12:08:22;1.52;;;0.80;;
69083;SDS011;56185;48.526;9.044;2023-05-10T12:10:49;3.00;;;1.00;;
69083;SDS011;56185;48.526;9.044;2023-05-10T12:13:15;1.63;;;0.90;;
69083;SDS011;56185;48.526;9.044;2023-05-10T12:15:40;1.80;;;0.80;;
69083;SDS011;56185;48.526;9.044;2023-05-10T12:18:08;2.45;;;0.90;;
69083;SDS011;56185;48.526;9.044;2023-05-10T12:20:34;2.05;;;1.15;;
69083;SDS011;56185;48.526;9.044;2023-05-10T12:22:59;1.83;;;1.10;;
69083;SDS011;56185;48.526;9.044;2023-05-10T12:25:29;2.50;;;1.00;;
69083;SDS011;56185;48.526;9.044;2023-05-10T12:27:57;2.95;;;0.90;;
69083;SDS011;56185;48.526;9.044;2023-05-10T12:30:28;1.40;;;0.90;;
69083;SDS011;56185;48.526;9.044;2023-05-10T12:32:59;1.25;;;0.80;;
69083;SDS011;56185;48.526;9.044;2023-05-10T12:35:25;1.85;;;0.90;;
69083;SDS011;56185;48.526;9.044;2023-05-10T12:37:51;2.33;;;0.80;;
69083;SDS011;56185;48.526;9.044;2023-05-10T12:40:16;1.20;;;0.90;;
69083;SDS011;56185;48.526;9.044;2023-05-10T12:42:41;1.40;;;0.90;;
69083;SDS011;56185;48.526;9.044;2023-05-10T12:45:07;1.70;;;1.00;;
69083;SDS011;56185;48.526;9.044;2023-05-10T12:47:33;2.60;;;0.90;;
69083;SDS011;56185;48.526;9.044;2023-05-10T12:49:59;2.22;;;0.80;;
69083;SDS011;56185;48.526;9.044;2023-05-10T12:52:26;2.30;;;1.00;;
69083;SDS011;56185;48.526;9.044;2023-05-10T12:54:51;1.15;;;0.80;;
69083;SDS011;56185;48.526;9.044;2023-05-10T12:57:17;1.90;;;0.80;;
69083;SDS011;56185;48.526;9.044;2023-05-10T12:59:42;2.50;;;0.88;;
69083;SDS011;56185;48.526;9.044;2023-05-10T13:02:08;4.88;;;0.80;;
69083;SDS011;56185;48.526;9.044;2023-05-10T13:04:33;2.25;;;0.80;;
69083;SDS011;56185;48.526;9.044;2023-05-10T13:06:59;3.10;;;1.00;;
69083;SDS011;56185;48.526;9.044;2023-05-10T13:09:24;1.57;;;0.93;;
69083;SDS011;56185;48.526;9.044;2023-05-10T13:11:52;1.77;;;1.08;;
69083;SDS011;56185;48.526;9.044;2023-05-10T13:14:17;3.40;;;1.00;;
69083;SDS011;56185;48.526;9.044;2023-05-10T13:16:42;1.90;;;0.87;;
69083;SDS011;56185;48.526;9.044;2023-05-10T13:19:08;1.48;;;0.90;;
69083;SDS011;56185;48.526;9.044;2023-05-10T13:21:33;1.67;;;0.90;;
69083;SDS011;56185;48.526;9.044;2023-05-10T13:23:58;1.43;;;0.90;;
69083;SDS011;56185;48.526;9.044;2023-05-10T13:26:23;2.67;;;0.90;;
69083;SDS011;56185;48.526;9.044;2023-05-10T13:28:49;1.33;;;0.90;;
69083;SDS011;56185;48.526;9.044;2023-05-10T13:31:14;1.80;;;0.93;;
69083;SDS011;56185;48.526;9.044;2023-05-10T13:33:39;3.38;;;1.08;;
69083;SDS011;56185;48.526;9.044;2023-05-10T13:36:05;1.87;;;0.80;;
69083;SDS011;56185;48.526;9.044;2023-05-10T13:38:31;1.48;;;0.90;;
69083;SDS011;56185;48.526;9.044;2023-05-10T13:40:56;4.00;;;1.10;;
69083;SDS011;56185;48.526;9.044;2023-05-10T13:43:21;2.20;;;0.87;;
69083;SDS011;56185;48.526;9.044;2023-05-10T13:45:46;3.07;;;1.10;;
69083;SDS011;56185;48.526;9.044;2023-05-10T13:48:12;1.50;;;0.90;;
69083;SDS011;56185;48.526;9.044;2023-05-10T13:50:38;1.50;;;0.93;;
69083;SDS011;56185;48.526;9.044;2023-05-10T13:53:03;1.48;;;1.00;;
69083;SDS011;56185;48.526;9.044;2023-05-10T13:55:28;1.93;;;1.00;;
69083;SDS011;56185;48.526;9.044;2023-05-10T13:57:54;2.37;;;1.10;;
69083;SDS011;56185;48.526;9.044;2023-05-10T14:00:19;3.60;;;1.05;;
69083;SDS011;56185;48.526;9.044;2023-05-10T14:02:44;3.00;;;0.90;;
69083;SDS011;56185;48.526;9.044;2023-05-10T14:05:21;2.63;;;1.00;;
69083;SDS011;56185;48.526;9.044;2023-05-10T14:07:49;3.58;;;1.10;;
69083;SDS011;56185;48.526;9.044;2023-05-10T14:10:15;2.53;;;1.10;;
69083;SDS011;56185;48.526;9.044;2023-05-10T14:12:40;1.98;;;1.00;;
69083;SDS011;56185;48.526;9.044;2023-05-10T14:15:06;3.70;;;1.00;;
69083;SDS011;56185;48.526;9.044;2023-05-10T14:17:31;1.40;;;0.80;;
69083;SDS011;56185;48.526;9.044;2023-05-10T14:19:57;2.47;;;1.05;;
69083;SDS011;56185;48.526;9.044;2023-05-10T14:22:22;3.43;;;0.90;;
69083;SDS011;56185;48.526;9.044;2023-05-10T14:24:47;1.23;;;0.80;;
69083;SDS011;56185;48.526;9.044;2023-05-10T14:27:13;1.83;;;0.90;;
69083;SDS011;56185;48.526;9.044;2023-05-10T14:29:38;1.80;;;0.98;;
69083;SDS011;56185;48.526;9.044;2023-05-10T14:32:03;3.40;;;1.00;;
69083;SDS011;56185;48.526;9.044;2023-05-10T14:34:29;1.92;;;1.10;;
69083;SDS011;56185;48.526;9.044;2023-05-10T14:36:54;4.03;;;1.20;;
69083;SDS011;56185;48.526;9.044;2023-05-10T14:39:19;2.30;;;1.00;;
69083;SDS011;56185;48.526;9.044;2023-05-10T14:41:44;4.55;;;1.30;;
69083;SDS011;56185;48.526;9.044;2023-05-10T14:44:10;1.60;;;0.97;;
69083;SDS011;56185;48.526;9.044;2023-05-10T14:46:35;2.40;;;0.90;;
69083;SDS011;56185;48.526;9.044;2023-05-10T14:49:00;1.85;;;1.00;;
69083;SDS011;56185;48.526;9.044;2023-05-10T14:51:26;3.33;;;1.20;;
69083;SDS011;56185;48.526;9.044;2023-05-10T14:53:51;1.43;;;0.90;;
69083;SDS011;56185;48.526;9.044;2023-05-10T14:56:16;1.93;;;0.87;;
69083;SDS011;56185;48.526;9.044;2023-05-10T14:58:42;3.10;;;1.08;;
69083;SDS011;56185;48.526;9.044;2023-05-10T15:01:07;2.33;;;1.00;;
69083;SDS011;56185;48.526;9.044;2023-05-10T15:03:32;3.45;;;1.40;;
69083;SDS011;56185;48.526;9.044;2023-05-10T15:05:57;2.28;;;1.00;;
69083;SDS011;56185;48.526;9.044;2023-05-10T15:08:23;2.17;;;1.00;;
69083;SDS011;56185;48.526;9.044;2023-05-10T15:10:48;3.47;;;0.90;;
69083;SDS011;56185;48.526;9.044;2023-05-10T15:13:14;2.10;;;0.90;;
69083;SDS011;56185;48.526;9.044;2023-05-10T15:15:39;1.67;;;0.97;;
69083;SDS011;56185;48.526;9.044;2023-05-10T15:18:04;1.60;;;1.00;;
69083;SDS011;56185;48.526;9.044;2023-05-10T15:20:29;1.90;;;1.00;;